KCIU/CIU METAR and TAF weather

Enter ICAO airport designator
Station Type Date Time Source
KCIU METAR 2018/10/16 14:31 UTC NOAA

KCIU 161431Z AUTO 24005KT 10SM -RA OVC028 06/03 A2982 RMK AO2 P0000


Station Type Date Time Source
KCIU Decoded METAR 2018/10/16 14:31 UTC NOAA

Sault Ste Marie, Chippewa County International Airport, MI, United States (KCIU) 46-15N 084-28W
Oct 16, 2018 - 10:31 AM EDT / 2018.10.16 1431 UTC
Wind: from the WSW (240 degrees) at 6 MPH (5 KT):0
Visibility: 10 mile(s):0
Sky conditions: overcast
Weather: light rain
Precipitation last hour: A trace
Temperature: 42 F (6 C)
Dew Point: 37 F (3 C)
Relative Humidity: 81%
Pressure (altimeter): 29.82 in. Hg (1009 hPa)
ob: KCIU 161431Z AUTO 24005KT 10SM -RA OVC028 06/03 A2982 RMK AO2 P0000
cycle: 14

Station Type Date Time Source
KCIU TAF UTC NOAA

Error!


Example: see airport list